Skip Navigation Links Skip Navigation Links

Current Weather

Shoreham, United Kingdom

For information only: do not use for flight planning or navigation.
Latest weather
Observation time Tuesday, September 28, 2021 10:20 AM BST
Local time Tuesday, September 28, 2021 10:57 AM BST
Flight conditions Visual Meteorological Conditions
Winds
Wind direction South-Southwest (200°)
Wind speed 20 mph
Visibility 6.2 mi.
Sky condition
Ceiling unlimited
Cloud layer scattered clouds 2,200 ft.
Temperature 61°F
Dewpoint 54°F
Altimeter 30.06 in.Hg
Derived measurements
Relative humidity 77%
Density altitude 154 ft.
METAR EGKA 280920Z 20017KT 9999 SCT022 16/12 Q1018

Settings

Location code

InnerDrive.Weather 4.0.6770.0 Release CLR 4.0.30319.42000
Copyright ©2018 Inner Drive Technology. All rights reserved. Portions Copyright ©1986-2018 David Braverman.

Find weather

Site navigation


Skip Navigation Links

Place info

Page info

PayPal - The safer, easier way to pay online!

Return home.

Copyright ©2021 Inner Drive Technology. Purveyors of fine, hand-crafted computer software. Page printed 2021-09-28T09:57:01 UTC.